createdAt,value
2023-01-27T00:00:39.281Z,2.10
2023-01-27T00:03:06.817Z,2.80
2023-01-27T00:05:34.141Z,2.47
2023-01-27T00:08:01.355Z,2.65
2023-01-27T00:10:28.625Z,3.00
2023-01-27T00:13:14.482Z,3.17
2023-01-27T00:15:41.872Z,2.55
2023-01-27T00:18:09.263Z,2.58
2023-01-27T00:21:15.046Z,2.53
2023-01-27T00:24:01.055Z,3.08
2023-01-27T00:26:28.503Z,2.75
2023-01-27T00:28:56.020Z,2.75
2023-01-27T00:31:41.860Z,3.08
2023-01-27T00:34:09.481Z,2.33
2023-01-27T00:36:38.201Z,2.95
2023-01-27T00:39:09.114Z,2.50
2023-01-27T00:41:36.791Z,2.65
2023-01-27T00:44:05.547Z,2.63
2023-01-27T00:46:33.249Z,3.60
2023-01-27T00:49:01.755Z,2.70
2023-01-27T00:51:29.048Z,2.72
2023-01-27T00:53:56.437Z,3.38
2023-01-27T00:56:23.663Z,3.05
2023-01-27T00:58:50.973Z,3.97
2023-01-27T01:01:18.960Z,3.75
2023-01-27T01:03:46.503Z,2.78
2023-01-27T01:06:15.093Z,3.80
2023-01-27T01:08:42.397Z,3.08
2023-01-27T01:11:11.493Z,5.03
2023-01-27T01:13:38.789Z,2.90
2023-01-27T01:16:07.810Z,2.97
2023-01-27T01:18:35.107Z,2.70
2023-01-27T01:21:02.771Z,3.63
2023-01-27T01:23:30.047Z,3.40
2023-01-27T01:25:58.049Z,4.57
2023-01-27T01:28:25.575Z,5.68
2023-01-27T01:30:53.128Z,6.20
2023-01-27T01:33:20.484Z,4.97
2023-01-27T01:35:47.755Z,3.90
2023-01-27T01:38:15.076Z,5.22
2023-01-27T01:40:45.524Z,4.55
2023-01-27T01:43:14.085Z,5.07
2023-01-27T01:45:44.354Z,3.72
2023-01-27T01:48:34.989Z,7.15
2023-01-27T01:51:21.181Z,4.95
2023-01-27T01:54:14.925Z,4.43
2023-01-27T01:56:45.126Z,4.20
2023-01-27T01:59:15.418Z,5.15
2023-01-27T02:01:42.719Z,4.40
2023-01-27T02:04:12.662Z,5.95
2023-01-27T02:07:09.388Z,4.72
2023-01-27T02:09:37.687Z,5.03
2023-01-27T02:12:05.211Z,4.32
2023-01-27T02:14:32.541Z,6.68
2023-01-27T02:17:00.031Z,4.75
2023-01-27T02:19:36.639Z,4.90
2023-01-27T02:22:04.717Z,5.43
2023-01-27T02:24:38.397Z,5.65
2023-01-27T02:27:05.657Z,5.03
2023-01-27T02:29:32.902Z,7.05
2023-01-27T02:32:00.482Z,5.63
2023-01-27T02:34:30.609Z,6.60
2023-01-27T02:36:59.591Z,6.70
2023-01-27T02:39:34.227Z,8.52
2023-01-27T02:42:01.924Z,7.07
2023-01-27T02:44:29.243Z,7.18
2023-01-27T02:46:56.513Z,8.05
2023-01-27T02:49:23.876Z,7.72
2023-01-27T02:51:51.194Z,8.45
2023-01-27T02:54:18.787Z,8.32
2023-01-27T02:56:46.156Z,8.05
2023-01-27T02:59:16.155Z,9.00
2023-01-27T03:01:43.650Z,9.13
2023-01-27T03:04:11.978Z,8.75
2023-01-27T03:06:39.655Z,10.45
2023-01-27T03:09:07.022Z,9.48
2023-01-27T03:11:52.885Z,10.10
2023-01-27T03:14:20.308Z,8.23
2023-01-27T03:17:07.016Z,8.20
2023-01-27T03:19:34.313Z,10.30
2023-01-27T03:22:01.933Z,9.38
2023-01-27T03:24:31.079Z,9.15
2023-01-27T03:27:02.581Z,9.20
2023-01-27T03:29:56.915Z,8.50
2023-01-27T03:32:25.363Z,9.18
2023-01-27T03:35:12.944Z,9.73
2023-01-27T03:37:59.408Z,10.02
2023-01-27T03:40:46.655Z,9.15
2023-01-27T03:43:33.136Z,9.88
2023-01-27T03:46:20.613Z,10.13
2023-01-27T03:48:51.746Z,11.68
2023-01-27T03:51:19.822Z,10.63
2023-01-27T03:53:47.607Z,11.70
2023-01-27T03:56:15.809Z,10.93
2023-01-27T03:58:43.524Z,10.50
2023-01-27T04:01:16.132Z,10.88
2023-01-27T04:04:02.298Z,11.85
2023-01-27T04:06:50.287Z,9.10
2023-01-27T04:09:22.246Z,8.25
2023-01-27T04:11:55.466Z,9.23
2023-01-27T04:14:23.513Z,8.55
2023-01-27T04:16:51.554Z,7.72
2023-01-27T04:19:18.879Z,5.88
2023-01-27T04:21:46.276Z,6.60
2023-01-27T04:24:17.314Z,4.97
2023-01-27T04:26:45.399Z,5.97
2023-01-27T04:29:15.413Z,7.65
2023-01-27T04:31:42.788Z,6.20
2023-01-27T04:34:11.091Z,5.72
2023-01-27T04:36:38.405Z,5.30
2023-01-27T04:39:05.731Z,7.20
2023-01-27T04:41:33.912Z,5.18
2023-01-27T04:44:01.122Z,5.18
2023-01-27T04:46:28.330Z,5.18
2023-01-27T04:48:55.602Z,5.30
2023-01-27T04:51:22.909Z,5.45
2023-01-27T04:53:50.257Z,4.85
2023-01-27T04:56:25.246Z,4.47
2023-01-27T04:58:52.564Z,5.32
2023-01-27T05:01:19.959Z,4.53
2023-01-27T05:03:47.269Z,4.57
2023-01-27T05:06:14.889Z,5.10
2023-01-27T05:08:42.360Z,4.43
2023-01-27T05:11:09.873Z,4.78
2023-01-27T05:13:37.476Z,4.40
2023-01-27T05:16:09.055Z,3.78
2023-01-27T05:18:36.544Z,4.10
2023-01-27T05:21:04.424Z,4.15
2023-01-27T05:23:37.958Z,3.92
2023-01-27T05:26:09.976Z,4.53
2023-01-27T05:28:37.914Z,5.70
2023-01-27T05:31:10.251Z,3.83
2023-01-27T05:33:37.800Z,3.80
2023-01-27T05:36:06.268Z,3.65
2023-01-27T05:38:33.830Z,3.60
2023-01-27T05:41:02.809Z,3.58
2023-01-27T05:43:30.952Z,4.07
2023-01-27T05:46:08.781Z,3.38
2023-01-27T05:48:36.895Z,3.92
2023-01-27T05:51:04.190Z,4.15
2023-01-27T05:53:31.498Z,3.63
2023-01-27T05:55:59.169Z,2.90
2023-01-27T05:58:26.816Z,2.72
2023-01-27T06:00:54.419Z,2.53
2023-01-27T06:03:22.184Z,2.75
2023-01-27T06:05:50.470Z,3.30
2023-01-27T06:08:17.787Z,3.13
2023-01-27T06:10:45.384Z,2.85
2023-01-27T06:13:13.036Z,3.30
2023-01-27T06:15:44.172Z,2.58
2023-01-27T06:18:11.709Z,2.95
2023-01-27T06:20:39.523Z,2.60
2023-01-27T06:23:07.581Z,2.25
2023-01-27T06:25:39.144Z,2.60
2023-01-27T06:28:08.046Z,2.33
2023-01-27T06:30:37.188Z,2.53
2023-01-27T06:33:04.918Z,2.40
2023-01-27T06:35:32.890Z,2.35
2023-01-27T06:38:01.054Z,2.42
2023-01-27T06:40:29.937Z,2.58
2023-01-27T06:42:57.473Z,2.28
2023-01-27T06:45:24.897Z,2.80
2023-01-27T06:47:56.927Z,2.63
2023-01-27T06:50:24.762Z,2.13
2023-01-27T06:52:52.406Z,2.63
2023-01-27T06:55:19.849Z,2.25
2023-01-27T06:57:50.431Z,2.80
2023-01-27T07:00:17.971Z,2.17
2023-01-27T07:02:45.453Z,2.30
2023-01-27T07:05:13.297Z,2.30
2023-01-27T07:07:40.882Z,2.47
2023-01-27T07:10:08.295Z,1.95
2023-01-27T07:12:37.809Z,2.20
2023-01-27T07:15:06.131Z,1.92
2023-01-27T07:17:33.761Z,1.95
2023-01-27T07:20:01.361Z,2.03
2023-01-27T07:22:28.758Z,2.17
2023-01-27T07:24:56.034Z,2.72
2023-01-27T07:27:24.019Z,1.63
2023-01-27T07:29:51.377Z,2.20
2023-01-27T07:32:18.761Z,1.67
2023-01-27T07:34:46.002Z,2.28
2023-01-27T07:37:13.527Z,1.98
2023-01-27T07:39:40.857Z,2.33
2023-01-27T07:42:09.147Z,1.90
2023-01-27T07:44:37.271Z,1.85
2023-01-27T07:47:05.582Z,2.22
2023-01-27T07:49:32.874Z,1.98
2023-01-27T07:52:00.139Z,2.15
2023-01-27T07:54:27.390Z,2.40
2023-01-27T07:56:54.620Z,1.75
2023-01-27T07:59:21.841Z,2.15
2023-01-27T08:01:49.102Z,2.75
2023-01-27T08:04:17.156Z,2.17
2023-01-27T08:06:44.420Z,2.20
2023-01-27T08:09:11.660Z,2.00
2023-01-27T08:11:38.997Z,1.83
2023-01-27T08:14:06.263Z,2.28
2023-01-27T08:16:33.684Z,2.05
2023-01-27T08:19:01.084Z,1.50
2023-01-27T08:21:32.794Z,1.42
2023-01-27T08:24:00.578Z,4.00
2023-01-27T08:26:28.042Z,1.65
2023-01-27T08:28:55.272Z,1.88
2023-01-27T08:31:22.578Z,1.67
2023-01-27T08:33:53.874Z,2.03
2023-01-27T08:36:22.299Z,1.63
2023-01-27T08:38:49.674Z,1.57
2023-01-27T08:41:19.560Z,1.85
2023-01-27T08:43:47.042Z,1.80
2023-01-27T08:46:14.921Z,1.95
2023-01-27T08:48:42.425Z,2.38
2023-01-27T08:51:10.290Z,1.92
2023-01-27T08:53:37.644Z,1.90
2023-01-27T08:56:06.393Z,2.00
2023-01-27T08:58:34.114Z,1.90
2023-01-27T09:01:02.558Z,2.53
2023-01-27T09:03:30.672Z,2.03
2023-01-27T09:05:57.981Z,2.65
2023-01-27T09:08:25.472Z,2.17
2023-01-27T09:10:52.972Z,2.00
2023-01-27T09:13:22.451Z,3.15
2023-01-27T09:15:51.968Z,2.83
2023-01-27T09:18:19.390Z,2.97
2023-01-27T09:20:46.711Z,3.00
2023-01-27T09:23:14.274Z,3.30
2023-01-27T09:25:41.560Z,2.70
2023-01-27T09:28:16.966Z,2.60
2023-01-27T09:30:46.329Z,2.17
2023-01-27T09:33:17.479Z,2.17
2023-01-27T09:35:52.151Z,2.08
2023-01-27T09:38:21.351Z,2.10
2023-01-27T09:40:58.093Z,1.95
2023-01-27T09:43:32.950Z,1.80
2023-01-27T09:46:19.038Z,1.67
2023-01-27T09:48:54.762Z,2.05
2023-01-27T09:51:34.160Z,1.67
2023-01-27T09:54:09.105Z,1.52
2023-01-27T09:56:48.334Z,2.15
2023-01-27T10:01:46.348Z,1.15
2023-01-27T10:04:22.928Z,1.60
2023-01-27T10:06:56.390Z,1.40
2023-01-27T10:09:36.176Z,1.65
2023-01-27T10:12:10.398Z,1.52
2023-01-27T10:14:48.923Z,1.60
2023-01-27T10:17:24.249Z,1.60
2023-01-27T10:20:00.750Z,1.17
2023-01-27T10:22:46.682Z,1.50
2023-01-27T10:25:23.526Z,1.00
2023-01-27T10:27:56.640Z,1.40
2023-01-27T10:30:34.999Z,1.30
2023-01-27T10:33:11.681Z,1.42
2023-01-27T10:35:59.174Z,0.90
2023-01-27T10:38:27.082Z,1.55
2023-01-27T10:41:13.443Z,0.93
2023-01-27T10:43:59.569Z,1.23
2023-01-27T10:46:36.594Z,0.90
2023-01-27T10:49:27.196Z,0.98
2023-01-27T10:52:05.283Z,2.50
2023-01-27T10:54:41.948Z,0.68
2023-01-27T10:57:18.765Z,0.70
2023-01-27T11:00:13.923Z,0.90
2023-01-27T11:02:47.611Z,0.65
2023-01-27T11:05:21.001Z,0.93
2023-01-27T11:07:51.852Z,0.52
2023-01-27T11:10:20.046Z,0.60
2023-01-27T11:12:49.498Z,0.77
2023-01-27T11:15:16.861Z,0.95
2023-01-27T11:17:49.596Z,0.88
2023-01-27T11:20:19.665Z,0.70
2023-01-27T11:22:56.293Z,0.70
2023-01-27T11:25:26.168Z,1.55
2023-01-27T11:27:53.439Z,0.88
2023-01-27T11:30:23.169Z,0.90
2023-01-27T11:33:00.062Z,0.68
2023-01-27T11:35:27.361Z,0.90
2023-01-27T11:38:00.593Z,0.68
2023-01-27T11:40:30.752Z,0.82
2023-01-27T11:42:58.478Z,0.90
2023-01-27T11:45:26.216Z,1.17
2023-01-27T11:47:56.031Z,1.20
2023-01-27T11:50:27.295Z,1.13
2023-01-27T11:53:01.233Z,1.13
2023-01-27T11:55:31.496Z,1.42
2023-01-27T11:58:06.447Z,0.90
2023-01-27T12:00:38.365Z,0.98
2023-01-27T12:03:13.951Z,1.00
2023-01-27T12:05:48.435Z,1.30
2023-01-27T12:08:35.609Z,1.52
2023-01-27T12:11:17.353Z,1.17
2023-01-27T12:14:01.255Z,1.42
2023-01-27T12:16:41.372Z,1.60
2023-01-27T12:19:20.450Z,1.83
2023-01-27T12:21:50.569Z,1.42
2023-01-27T12:24:39.127Z,1.30
2023-01-27T12:27:07.505Z,0.77
2023-01-27T12:29:40.075Z,1.30
2023-01-27T12:32:14.376Z,1.23
2023-01-27T12:34:45.059Z,1.30
2023-01-27T12:37:20.199Z,1.13
2023-01-27T12:39:51.722Z,1.15
2023-01-27T12:42:38.446Z,1.20
2023-01-27T12:45:31.931Z,1.50
2023-01-27T12:48:05.179Z,1.23
2023-01-27T12:50:35.674Z,1.40
2023-01-27T12:53:15.497Z,1.30
2023-01-27T12:55:44.899Z,1.52
2023-01-27T13:00:46.398Z,1.40
2023-01-27T13:03:13.850Z,1.50
2023-01-27T13:05:42.839Z,1.55
2023-01-27T13:08:16.159Z,1.63
2023-01-27T13:10:54.070Z,1.60
2023-01-27T13:13:31.647Z,1.73
2023-01-27T13:16:05.022Z,1.75
2023-01-27T13:18:38.390Z,2.17
2023-01-27T13:21:14.887Z,2.90
2023-01-27T13:23:42.400Z,1.83
2023-01-27T13:26:09.816Z,1.42
2023-01-27T13:28:55.011Z,1.50
2023-01-27T13:31:22.318Z,3.08
2023-01-27T13:33:52.674Z,1.48
2023-01-27T13:36:30.620Z,1.20
2023-01-27T13:39:06.180Z,1.40
2023-01-27T13:41:37.617Z,1.50
2023-01-27T13:44:09.441Z,1.80
2023-01-27T13:46:39.499Z,3.53
2023-01-27T13:49:16.508Z,5.57
2023-01-27T13:51:43.836Z,5.95
2023-01-27T13:54:12.838Z,6.55
2023-01-27T13:56:40.043Z,4.53
2023-01-27T13:59:33.393Z,2.10
2023-01-27T14:02:23.165Z,1.90
2023-01-27T14:04:56.505Z,1.77
2023-01-27T14:07:31.719Z,1.40
2023-01-27T14:10:08.120Z,1.25
2023-01-27T14:12:44.565Z,1.30
2023-01-27T14:15:20.988Z,1.23
2023-01-27T14:17:57.273Z,1.83
2023-01-27T14:20:32.829Z,1.17
2023-01-27T14:23:24.797Z,1.30
2023-01-27T14:26:10.904Z,1.40
2023-01-27T14:28:38.104Z,1.42
2023-01-27T14:31:17.742Z,1.30
2023-01-27T14:33:54.247Z,1.23
2023-01-27T14:36:27.978Z,1.58
2023-01-27T14:38:55.190Z,1.83
2023-01-27T14:41:22.420Z,1.60
2023-01-27T14:43:49.657Z,1.88
2023-01-27T14:46:20.290Z,2.13
2023-01-27T14:48:59.793Z,1.90
2023-01-27T14:51:36.058Z,2.25
2023-01-27T14:54:06.395Z,2.25
2023-01-27T14:57:05.839Z,2.30
2023-01-27T14:59:41.761Z,2.15
2023-01-27T15:02:14.954Z,1.90
2023-01-27T15:05:02.489Z,2.30
2023-01-27T15:07:32.606Z,2.63
2023-01-27T15:10:21.684Z,2.30
2023-01-27T15:12:52.029Z,2.42
2023-01-27T15:15:38.239Z,2.55
2023-01-27T15:18:17.568Z,2.22
2023-01-27T15:23:34.945Z,2.40
2023-01-27T15:26:06.235Z,2.92
2023-01-27T15:28:35.811Z,2.35
2023-01-27T15:31:15.507Z,3.15
2023-01-27T15:33:46.036Z,2.72
2023-01-27T15:36:19.268Z,2.97
2023-01-27T15:39:05.755Z,2.40
2023-01-27T15:41:33.044Z,2.47
2023-01-27T15:44:05.669Z,2.55
2023-01-27T15:46:34.584Z,3.05
2023-01-27T15:49:04.539Z,2.35
2023-01-27T15:51:35.850Z,2.35
2023-01-27T15:54:03.924Z,2.38
2023-01-27T15:56:46.794Z,2.58
2023-01-27T15:59:16.194Z,3.00
2023-01-27T16:04:10.670Z,4.28
2023-01-27T16:06:45.432Z,3.03
2023-01-27T16:09:23.312Z,3.40
2023-01-27T16:12:04.638Z,2.80
2023-01-27T16:14:39.148Z,3.30
2023-01-27T16:17:09.501Z,2.65
2023-01-27T16:19:42.858Z,2.25
2023-01-27T16:22:14.686Z,3.08
2023-01-27T16:24:48.210Z,2.25
2023-01-27T16:27:15.640Z,2.20
2023-01-27T16:29:46.400Z,2.50
2023-01-27T16:32:17.251Z,2.65
2023-01-27T16:34:52.555Z,2.35
2023-01-27T16:37:26.003Z,2.40
2023-01-27T16:39:59.123Z,2.30
2023-01-27T16:42:37.573Z,2.63
2023-01-27T16:45:11.147Z,2.37
2023-01-27T16:47:44.058Z,2.70
2023-01-27T16:50:31.815Z,2.70
2023-01-27T16:52:59.362Z,2.78
2023-01-27T16:55:26.583Z,3.83
2023-01-27T16:57:55.374Z,3.53
2023-01-27T17:00:24.522Z,2.88
2023-01-27T17:02:52.293Z,2.85
2023-01-27T17:05:20.514Z,3.40
2023-01-27T17:08:06.301Z,3.40
2023-01-27T17:10:35.080Z,2.88
2023-01-27T17:13:02.652Z,3.42
2023-01-27T17:15:31.123Z,4.85
2023-01-27T17:17:58.676Z,4.73
2023-01-27T17:20:32.045Z,4.32
2023-01-27T17:23:00.140Z,4.20
2023-01-27T17:25:27.354Z,3.35
2023-01-27T17:27:55.972Z,3.40
2023-01-27T17:30:27.222Z,4.55
2023-01-27T17:32:56.235Z,3.30
2023-01-27T17:35:23.615Z,4.65
2023-01-27T17:37:51.273Z,3.60
2023-01-27T17:40:20.120Z,3.97
2023-01-27T17:42:48.202Z,4.20
2023-01-27T17:45:34.867Z,3.70
2023-01-27T17:48:02.389Z,4.25
2023-01-27T17:50:33.498Z,4.57
2023-01-27T17:53:00.900Z,4.53
2023-01-27T17:55:31.255Z,3.97
2023-01-27T17:58:03.983Z,4.20
2023-01-27T18:00:37.436Z,4.82
2023-01-27T18:03:07.219Z,4.57
2023-01-27T18:05:34.551Z,4.55
2023-01-27T18:08:03.764Z,4.80
2023-01-27T18:10:30.969Z,5.95
2023-01-27T18:12:58.428Z,5.03
2023-01-27T18:15:37.818Z,4.80
2023-01-27T18:18:08.385Z,5.20
2023-01-27T18:20:36.963Z,4.57
2023-01-27T18:23:07.433Z,4.60
2023-01-27T18:25:34.784Z,4.60
2023-01-27T18:28:02.177Z,4.32
2023-01-27T18:30:29.463Z,4.68
2023-01-27T18:33:06.700Z,5.28
2023-01-27T18:35:34.942Z,4.47
2023-01-27T18:38:03.679Z,5.05
2023-01-27T18:40:35.406Z,5.10
2023-01-27T18:43:04.166Z,5.45
2023-01-27T18:45:31.633Z,5.03
2023-01-27T18:47:59.548Z,5.25
2023-01-27T18:50:27.425Z,6.20
2023-01-27T18:52:54.827Z,6.30
2023-01-27T18:55:26.708Z,6.53
2023-01-27T18:57:55.235Z,5.72
2023-01-27T19:00:24.807Z,4.47
2023-01-27T19:02:53.777Z,5.93
2023-01-27T19:05:21.065Z,6.05
2023-01-27T19:07:49.075Z,7.10
2023-01-27T19:10:18.147Z,6.60
2023-01-27T19:12:45.925Z,7.20
2023-01-27T19:15:14.207Z,6.20
2023-01-27T19:17:42.229Z,5.55
2023-01-27T19:20:19.362Z,6.60
2023-01-27T19:22:48.658Z,6.57
2023-01-27T19:25:16.270Z,6.47
2023-01-27T19:27:45.018Z,6.65
2023-01-27T19:30:38.443Z,7.20
2023-01-27T19:33:16.163Z,8.02
2023-01-27T19:35:44.885Z,6.38
2023-01-27T19:38:13.003Z,6.88
2023-01-27T19:40:40.571Z,6.65
2023-01-27T19:43:07.901Z,7.20
2023-01-27T19:45:35.225Z,7.57
2023-01-27T19:48:02.575Z,7.75
2023-01-27T19:50:30.906Z,7.80
2023-01-27T19:52:59.033Z,6.50
2023-01-27T19:55:26.534Z,7.30
2023-01-27T19:57:53.933Z,7.05
2023-01-27T20:00:26.513Z,7.78
2023-01-27T20:02:53.817Z,6.57
2023-01-27T20:05:21.439Z,8.32
2023-01-27T20:07:49.191Z,7.22
2023-01-27T20:10:18.246Z,7.72
2023-01-27T20:12:53.431Z,6.57
2023-01-27T20:15:23.952Z,7.30
2023-01-27T20:17:55.479Z,7.03
2023-01-27T20:20:23.460Z,7.05
2023-01-27T20:22:50.738Z,6.68
2023-01-27T20:25:21.714Z,6.65
2023-01-27T20:27:50.047Z,7.00
2023-01-27T20:30:18.997Z,6.20
2023-01-27T20:32:46.876Z,6.45
2023-01-27T20:35:15.150Z,6.95
2023-01-27T20:37:43.416Z,7.85
2023-01-27T20:40:15.128Z,7.53
2023-01-27T20:42:42.519Z,6.68
2023-01-27T20:45:10.522Z,7.32
2023-01-27T20:47:37.804Z,7.55
2023-01-27T20:50:06.805Z,6.35
2023-01-27T20:52:37.428Z,6.40
2023-01-27T20:55:05.405Z,7.15
2023-01-27T20:57:34.286Z,8.23
2023-01-27T21:00:01.488Z,5.28
2023-01-27T21:02:29.540Z,6.97
2023-01-27T21:04:57.029Z,7.90
2023-01-27T21:07:24.984Z,8.07
2023-01-27T21:09:53.534Z,6.90
2023-01-27T21:12:21.740Z,5.82
2023-01-27T21:14:49.013Z,7.20
2023-01-27T21:17:17.313Z,7.80
2023-01-27T21:19:44.703Z,6.63
2023-01-27T21:22:12.018Z,7.75
2023-01-27T21:24:39.311Z,7.60
2023-01-27T21:27:06.537Z,7.95
2023-01-27T21:29:33.875Z,8.70
2023-01-27T21:32:01.365Z,7.30
2023-01-27T21:34:28.601Z,8.45
2023-01-27T21:36:55.995Z,7.38
2023-01-27T21:39:23.987Z,8.30
2023-01-27T21:41:54.088Z,8.35
2023-01-27T21:44:41.390Z,8.43
2023-01-27T21:47:09.520Z,9.07
2023-01-27T21:49:57.883Z,9.05
2023-01-27T21:52:26.094Z,7.97
2023-01-27T21:54:53.352Z,7.72
2023-01-27T21:57:20.591Z,7.55
2023-01-27T21:59:47.902Z,6.80
2023-01-27T22:02:15.836Z,6.53
2023-01-27T22:04:46.817Z,7.97
2023-01-27T22:07:15.624Z,9.00
2023-01-27T22:09:43.017Z,7.53
2023-01-27T22:12:13.886Z,7.28
2023-01-27T22:14:41.118Z,7.65
2023-01-27T22:17:09.281Z,8.48
2023-01-27T22:19:39.753Z,7.53
2023-01-27T22:22:12.628Z,8.00
2023-01-27T22:24:39.926Z,7.50
2023-01-27T22:27:07.231Z,8.57
2023-01-27T22:29:34.604Z,9.50
2023-01-27T22:32:01.827Z,8.60
2023-01-27T22:34:29.092Z,8.10
2023-01-27T22:36:56.388Z,8.38
2023-01-27T22:39:23.921Z,7.82
2023-01-27T22:41:51.415Z,8.30
2023-01-27T22:44:18.882Z,8.48
2023-01-27T22:46:48.425Z,7.90
2023-01-27T22:49:15.962Z,7.60
2023-01-27T22:51:43.245Z,7.80
2023-01-27T22:54:10.552Z,7.80
2023-01-27T22:56:39.160Z,8.02
2023-01-27T22:59:09.679Z,7.65
2023-01-27T23:01:37.550Z,7.68
2023-01-27T23:04:05.081Z,7.93
2023-01-27T23:06:34.254Z,7.30
2023-01-27T23:09:01.552Z,7.18
2023-01-27T23:11:28.838Z,7.43
2023-01-27T23:13:56.113Z,7.63
2023-01-27T23:16:23.564Z,7.55
2023-01-27T23:18:51.248Z,8.20
2023-01-27T23:21:18.428Z,7.90
2023-01-27T23:23:45.702Z,7.30
2023-01-27T23:26:14.463Z,7.88
2023-01-27T23:28:41.779Z,7.55
2023-01-27T23:31:10.180Z,8.00
2023-01-27T23:33:38.306Z,6.23
2023-01-27T23:36:07.342Z,8.10
2023-01-27T23:38:35.353Z,7.55
2023-01-27T23:41:06.761Z,7.43
2023-01-27T23:43:33.995Z,7.47
2023-01-27T23:46:01.325Z,8.63
2023-01-27T23:48:28.608Z,7.45
2023-01-27T23:50:55.898Z,8.10
2023-01-27T23:53:23.135Z,8.30
2023-01-27T23:55:57.702Z,8.07
2023-01-27T23:58:25.585Z,7.20
